Alpine Haven, Vermont
Current Conditions -  °F | °C
As of 8:35 PM on Tuesday 25 Nov 2014 (Local Time) from KEFK Reporting Station
Overcast Overcast  
Wind Chill:   Ceiling: 5000
Heat Index:   Visibility: 10mi
Dew Point: -4°   Wind: 10mph
Humidity: 54%   Direction: 240°WSW
Pressure: 29.97"   Gusts: 17mph
Location:  44.8557°N, 72.6016°W
Report Text: KEFK 260135Z AUTO 24009G15KT 10SM OVC050 05/M04 A2997 RMK AO2 T00481037
Loading
Personal Weather Stations






























Interactive Weather Map New forecast layout! Learn more

10-Day Weather Forecast

Advertisements
Track Severe Weather on mobile